sensor_id;sensor_type;location;lat;lon;timestamp;P1;durP1;ratioP1;P2;durP2;ratioP2
44428;SDS011;30134;47.866;-4.222;2022-12-07T04:32:14;9.23;;;7.05;;
44428;SDS011;30134;47.866;-4.222;2022-12-07T04:39:32;160.70;;;104.15;;
44428;SDS011;30134;47.866;-4.222;2022-12-07T04:41:59;111.07;;;72.25;;
44428;SDS011;30134;47.866;-4.222;2022-12-07T04:44:26;106.57;;;67.70;;
44428;SDS011;30134;47.866;-4.222;2022-12-07T04:46:54;107.45;;;68.22;;
44428;SDS011;30134;47.866;-4.222;2022-12-07T04:49:20;105.78;;;66.20;;
44428;SDS011;30134;47.866;-4.222;2022-12-07T04:51:47;98.82;;;63.13;;
44428;SDS011;30134;47.866;-4.222;2022-12-07T04:54:13;93.57;;;61.05;;
44428;SDS011;30134;47.866;-4.222;2022-12-07T04:56:41;97.32;;;59.75;;
44428;SDS011;30134;47.866;-4.222;2022-12-07T04:59:08;91.43;;;58.53;;
44428;SDS011;30134;47.866;-4.222;2022-12-07T05:01:40;86.20;;;55.33;;
44428;SDS011;30134;47.866;-4.222;2022-12-07T05:04:06;88.30;;;55.63;;
44428;SDS011;30134;47.866;-4.222;2022-12-07T05:06:32;83.40;;;52.42;;
44428;SDS011;30134;47.866;-4.222;2022-12-07T05:08:59;81.38;;;51.08;;
44428;SDS011;30134;47.866;-4.222;2022-12-07T05:11:25;81.70;;;51.13;;
44428;SDS011;30134;47.866;-4.222;2022-12-07T05:14:04;76.18;;;49.08;;
44428;SDS011;30134;47.866;-4.222;2022-12-07T05:16:42;76.28;;;46.72;;
44428;SDS011;30134;47.866;-4.222;2022-12-07T05:19:10;73.25;;;45.85;;
44428;SDS011;30134;47.866;-4.222;2022-12-07T05:21:37;70.28;;;45.80;;
44428;SDS011;30134;47.866;-4.222;2022-12-07T05:24:04;66.30;;;44.80;;
44428;SDS011;30134;47.866;-4.222;2022-12-07T05:26:32;64.20;;;43.08;;
44428;SDS011;30134;47.866;-4.222;2022-12-07T05:28:59;61.00;;;40.47;;
44428;SDS011;30134;47.866;-4.222;2022-12-07T05:31:25;62.65;;;40.53;;
44428;SDS011;30134;47.866;-4.222;2022-12-07T05:33:52;58.83;;;39.00;;
44428;SDS011;30134;47.866;-4.222;2022-12-07T05:36:18;58.88;;;38.45;;
44428;SDS011;30134;47.866;-4.222;2022-12-07T05:38:44;58.15;;;36.90;;
44428;SDS011;30134;47.866;-4.222;2022-12-07T05:41:12;54.97;;;35.75;;
44428;SDS011;30134;47.866;-4.222;2022-12-07T05:43:59;50.70;;;33.33;;
44428;SDS011;30134;47.866;-4.222;2022-12-07T05:46:26;51.78;;;34.30;;
44428;SDS011;30134;47.866;-4.222;2022-12-07T05:48:52;48.78;;;32.92;;
44428;SDS011;30134;47.866;-4.222;2022-12-07T05:51:18;46.85;;;31.13;;
44428;SDS011;30134;47.866;-4.222;2022-12-07T05:53:44;51.60;;;31.88;;
44428;SDS011;30134;47.866;-4.222;2022-12-07T05:56:11;47.45;;;30.75;;
44428;SDS011;30134;47.866;-4.222;2022-12-07T05:58:37;46.35;;;30.55;;
44428;SDS011;30134;47.866;-4.222;2022-12-07T06:01:21;45.03;;;29.40;;
44428;SDS011;30134;47.866;-4.222;2022-12-07T06:03:47;42.63;;;29.30;;
44428;SDS011;30134;47.866;-4.222;2022-12-07T06:06:13;42.90;;;27.73;;
44428;SDS011;30134;47.866;-4.222;2022-12-07T06:08:39;39.03;;;26.50;;
44428;SDS011;30134;47.866;-4.222;2022-12-07T06:11:05;39.05;;;26.73;;
44428;SDS011;30134;47.866;-4.222;2022-12-07T06:13:50;35.58;;;24.55;;
44428;SDS011;30134;47.866;-4.222;2022-12-07T06:16:16;37.80;;;24.92;;
44428;SDS011;30134;47.866;-4.222;2022-12-07T06:18:42;36.25;;;24.60;;
44428;SDS011;30134;47.866;-4.222;2022-12-07T06:21:08;34.00;;;23.10;;
44428;SDS011;30134;47.866;-4.222;2022-12-07T06:23:34;34.05;;;22.88;;
44428;SDS011;30134;47.866;-4.222;2022-12-07T06:26:00;33.20;;;22.52;;
44428;SDS011;30134;47.866;-4.222;2022-12-07T06:28:26;34.03;;;23.52;;
44428;SDS011;30134;47.866;-4.222;2022-12-07T06:30:59;32.55;;;22.25;;
44428;SDS011;30134;47.866;-4.222;2022-12-07T06:33:26;31.65;;;20.80;;
44428;SDS011;30134;47.866;-4.222;2022-12-07T06:35:53;28.60;;;20.05;;
44428;SDS011;30134;47.866;-4.222;2022-12-07T06:38:19;29.25;;;20.25;;
44428;SDS011;30134;47.866;-4.222;2022-12-07T06:40:46;30.13;;;20.70;;
44428;SDS011;30134;47.866;-4.222;2022-12-07T06:43:13;27.42;;;18.75;;
44428;SDS011;30134;47.866;-4.222;2022-12-07T06:45:40;28.73;;;18.77;;
44428;SDS011;30134;47.866;-4.222;2022-12-07T06:48:06;24.75;;;17.65;;
44428;SDS011;30134;47.866;-4.222;2022-12-07T06:50:32;26.23;;;18.33;;
44428;SDS011;30134;47.866;-4.222;2022-12-07T06:52:58;26.23;;;18.02;;
44428;SDS011;30134;47.866;-4.222;2022-12-07T06:55:24;24.80;;;16.58;;
44428;SDS011;30134;47.866;-4.222;2022-12-07T06:57:50;27.67;;;17.85;;
44428;SDS011;30134;47.866;-4.222;2022-12-07T07:00:16;24.45;;;16.83;;
44428;SDS011;30134;47.866;-4.222;2022-12-07T07:02:43;26.95;;;16.52;;
44428;SDS011;30134;47.866;-4.222;2022-12-07T07:05:09;22.98;;;16.25;;
44428;SDS011;30134;47.866;-4.222;2022-12-07T07:07:35;22.83;;;15.32;;
44428;SDS011;30134;47.866;-4.222;2022-12-07T07:10:01;21.58;;;15.07;;
44428;SDS011;30134;47.866;-4.222;2022-12-07T07:12:27;23.95;;;14.65;;
44428;SDS011;30134;47.866;-4.222;2022-12-07T07:14:53;19.58;;;13.65;;
44428;SDS011;30134;47.866;-4.222;2022-12-07T07:17:20;19.35;;;13.63;;
44428;SDS011;30134;47.866;-4.222;2022-12-07T07:19:47;18.55;;;13.52;;
44428;SDS011;30134;47.866;-4.222;2022-12-07T07:22:13;19.05;;;12.93;;
44428;SDS011;30134;47.866;-4.222;2022-12-07T07:24:39;18.88;;;13.63;;
44428;SDS011;30134;47.866;-4.222;2022-12-07T07:27:05;18.55;;;12.75;;
44428;SDS011;30134;47.866;-4.222;2022-12-07T07:29:31;17.15;;;12.32;;
44428;SDS011;30134;47.866;-4.222;2022-12-07T07:31:57;17.17;;;12.25;;
44428;SDS011;30134;47.866;-4.222;2022-12-07T07:34:25;17.10;;;11.45;;
44428;SDS011;30134;47.866;-4.222;2022-12-07T07:36:50;16.55;;;11.80;;
44428;SDS011;30134;47.866;-4.222;2022-12-07T07:39:16;15.88;;;11.40;;
44428;SDS011;30134;47.866;-4.222;2022-12-07T07:41:42;13.20;;;10.57;;
44428;SDS011;30134;47.866;-4.222;2022-12-07T07:44:09;15.95;;;11.45;;
44428;SDS011;30134;47.866;-4.222;2022-12-07T07:46:35;15.38;;;11.30;;
44428;SDS011;30134;47.866;-4.222;2022-12-07T07:49:01;15.18;;;10.55;;
44428;SDS011;30134;47.866;-4.222;2022-12-07T07:51:27;14.25;;;10.45;;
44428;SDS011;30134;47.866;-4.222;2022-12-07T07:53:53;15.40;;;10.48;;
44428;SDS011;30134;47.866;-4.222;2022-12-07T07:56:19;16.20;;;10.55;;
44428;SDS011;30134;47.866;-4.222;2022-12-07T07:58:45;14.82;;;10.50;;
44428;SDS011;30134;47.866;-4.222;2022-12-07T08:01:11;17.50;;;9.77;;
44428;SDS011;30134;47.866;-4.222;2022-12-07T08:03:38;13.07;;;9.02;;
44428;SDS011;30134;47.866;-4.222;2022-12-07T08:06:04;13.55;;;9.07;;
44428;SDS011;30134;47.866;-4.222;2022-12-07T08:08:31;15.27;;;9.60;;
44428;SDS011;30134;47.866;-4.222;2022-12-07T08:10:57;14.90;;;8.63;;
44428;SDS011;30134;47.866;-4.222;2022-12-07T08:13:26;13.52;;;9.32;;
44428;SDS011;30134;47.866;-4.222;2022-12-07T08:15:53;12.27;;;8.80;;
44428;SDS011;30134;47.866;-4.222;2022-12-07T08:18:19;12.10;;;8.57;;
44428;SDS011;30134;47.866;-4.222;2022-12-07T08:20:45;12.10;;;8.65;;
44428;SDS011;30134;47.866;-4.222;2022-12-07T08:23:11;11.63;;;8.52;;
44428;SDS011;30134;47.866;-4.222;2022-12-07T08:25:37;12.18;;;8.07;;
44428;SDS011;30134;47.866;-4.222;2022-12-07T08:28:04;11.98;;;8.50;;
44428;SDS011;30134;47.866;-4.222;2022-12-07T08:30:31;9.95;;;7.90;;
44428;SDS011;30134;47.866;-4.222;2022-12-07T08:32:57;12.38;;;7.50;;
44428;SDS011;30134;47.866;-4.222;2022-12-07T08:35:23;10.02;;;7.55;;
44428;SDS011;30134;47.866;-4.222;2022-12-07T08:37:51;9.25;;;7.00;;
44428;SDS011;30134;47.866;-4.222;2022-12-07T08:40:17;11.15;;;7.25;;
44428;SDS011;30134;47.866;-4.222;2022-12-07T08:42:44;10.52;;;7.15;;
44428;SDS011;30134;47.866;-4.222;2022-12-07T08:45:19;10.60;;;7.18;;
44428;SDS011;30134;47.866;-4.222;2022-12-07T08:47:48;12.05;;;7.07;;
44428;SDS011;30134;47.866;-4.222;2022-12-07T08:50:31;8.95;;;6.57;;
44428;SDS011;30134;47.866;-4.222;2022-12-07T08:52:58;11.82;;;6.93;;
44428;SDS011;30134;47.866;-4.222;2022-12-07T08:55:26;9.57;;;6.32;;
44428;SDS011;30134;47.866;-4.222;2022-12-07T08:57:54;10.30;;;6.70;;
44428;SDS011;30134;47.866;-4.222;2022-12-07T09:00:21;9.38;;;6.35;;
44428;SDS011;30134;47.866;-4.222;2022-12-07T09:02:48;8.52;;;6.00;;
44428;SDS011;30134;47.866;-4.222;2022-12-07T09:05:14;8.88;;;6.30;;
44428;SDS011;30134;47.866;-4.222;2022-12-07T09:07:40;9.73;;;6.28;;
44428;SDS011;30134;47.866;-4.222;2022-12-07T09:10:09;9.15;;;6.75;;
44428;SDS011;30134;47.866;-4.222;2022-12-07T09:12:36;8.10;;;6.28;;
44428;SDS011;30134;47.866;-4.222;2022-12-07T09:15:02;9.20;;;6.25;;
44428;SDS011;30134;47.866;-4.222;2022-12-07T09:17:31;9.68;;;6.15;;
44428;SDS011;30134;47.866;-4.222;2022-12-07T09:19:58;8.80;;;6.15;;
44428;SDS011;30134;47.866;-4.222;2022-12-07T09:22:28;8.93;;;6.20;;
44428;SDS011;30134;47.866;-4.222;2022-12-07T09:24:56;11.02;;;6.72;;
44428;SDS011;30134;47.866;-4.222;2022-12-07T09:27:23;10.10;;;5.80;;
44428;SDS011;30134;47.866;-4.222;2022-12-07T09:29:50;11.55;;;5.97;;
44428;SDS011;30134;47.866;-4.222;2022-12-07T09:32:16;12.90;;;7.95;;
44428;SDS011;30134;47.866;-4.222;2022-12-07T09:34:42;18.50;;;10.75;;
44428;SDS011;30134;47.866;-4.222;2022-12-07T09:37:08;21.85;;;14.00;;
44428;SDS011;30134;47.866;-4.222;2022-12-07T09:39:34;29.95;;;19.10;;
44428;SDS011;30134;47.866;-4.222;2022-12-07T09:42:03;35.65;;;21.38;;
44428;SDS011;30134;47.866;-4.222;2022-12-07T09:44:31;38.08;;;22.88;;
44428;SDS011;30134;47.866;-4.222;2022-12-07T09:46:58;40.78;;;23.27;;
44428;SDS011;30134;47.866;-4.222;2022-12-07T09:49:31;34.50;;;21.58;;
44428;SDS011;30134;47.866;-4.222;2022-12-07T09:52:02;43.60;;;22.45;;
44428;SDS011;30134;47.866;-4.222;2022-12-07T09:54:33;37.13;;;21.38;;
44428;SDS011;30134;47.866;-4.222;2022-12-07T09:57:03;38.15;;;21.98;;
44428;SDS011;30134;47.866;-4.222;2022-12-07T09:59:29;30.98;;;19.98;;
44428;SDS011;30134;47.866;-4.222;2022-12-07T10:01:55;33.20;;;20.13;;
44428;SDS011;30134;47.866;-4.222;2022-12-07T10:04:41;29.92;;;19.17;;
44428;SDS011;30134;47.866;-4.222;2022-12-07T10:07:09;29.08;;;18.95;;
44428;SDS011;30134;47.866;-4.222;2022-12-07T10:09:36;29.23;;;18.92;;
44428;SDS011;30134;47.866;-4.222;2022-12-07T10:12:09;32.22;;;18.75;;
44428;SDS011;30134;47.866;-4.222;2022-12-07T10:14:38;26.98;;;17.42;;
44428;SDS011;30134;47.866;-4.222;2022-12-07T10:17:37;25.05;;;16.58;;
44428;SDS011;30134;47.866;-4.222;2022-12-07T10:22:55;30.05;;;13.52;;
44428;SDS011;30134;47.866;-4.222;2022-12-07T10:25:24;19.02;;;11.50;;
44428;SDS011;30134;47.866;-4.222;2022-12-07T10:28:36;20.80;;;10.80;;
44428;SDS011;30134;47.866;-4.222;2022-12-07T10:30:51;20.05;;;10.90;;
44428;SDS011;30134;47.866;-4.222;2022-12-07T10:36:33;14.23;;;8.68;;
44428;SDS011;30134;47.866;-4.222;2022-12-07T10:39:04;16.60;;;10.27;;
44428;SDS011;30134;47.866;-4.222;2022-12-07T10:42:00;23.55;;;13.38;;
44428;SDS011;30134;47.866;-4.222;2022-12-07T10:44:32;32.33;;;20.40;;
44428;SDS011;30134;47.866;-4.222;2022-12-07T11:03:27;54.90;;;35.72;;
44428;SDS011;30134;47.866;-4.222;2022-12-07T11:14:15;52.67;;;34.70;;
44428;SDS011;30134;47.866;-4.222;2022-12-07T11:17:14;52.85;;;34.53;;
44428;SDS011;30134;47.866;-4.222;2022-12-07T11:22:47;48.10;;;32.95;;
44428;SDS011;30134;47.866;-4.222;2022-12-07T11:25:18;51.85;;;33.40;;
44428;SDS011;30134;47.866;-4.222;2022-12-07T11:33:46;46.83;;;31.10;;
44428;SDS011;30134;47.866;-4.222;2022-12-07T11:36:39;45.47;;;30.13;;
44428;SDS011;30134;47.866;-4.222;2022-12-07T11:41:54;69.25;;;44.38;;
44428;SDS011;30134;47.866;-4.222;2022-12-07T11:50:16;81.30;;;51.65;;
44428;SDS011;30134;47.866;-4.222;2022-12-07T11:55:54;73.72;;;46.17;;
44428;SDS011;30134;47.866;-4.222;2022-12-07T11:58:39;76.68;;;47.58;;
44428;SDS011;30134;47.866;-4.222;2022-12-07T12:03:46;76.00;;;48.20;;
44428;SDS011;30134;47.866;-4.222;2022-12-07T12:06:19;71.45;;;46.03;;
44428;SDS011;30134;47.866;-4.222;2022-12-07T12:09:00;73.00;;;45.47;;
44428;SDS011;30134;47.866;-4.222;2022-12-07T12:15:18;72.68;;;44.03;;
44428;SDS011;30134;47.866;-4.222;2022-12-07T12:21:26;68.07;;;43.33;;
44428;SDS011;30134;47.866;-4.222;2022-12-07T12:26:29;67.82;;;41.72;;
44428;SDS011;30134;47.866;-4.222;2022-12-07T12:31:35;62.92;;;39.72;;
44428;SDS011;30134;47.866;-4.222;2022-12-07T12:34:33;60.58;;;40.35;;
44428;SDS011;30134;47.866;-4.222;2022-12-07T12:42:50;56.50;;;37.80;;
44428;SDS011;30134;47.866;-4.222;2022-12-07T12:45:19;63.35;;;40.30;;
44428;SDS011;30134;47.866;-4.222;2022-12-07T12:48:41;71.03;;;45.33;;
44428;SDS011;30134;47.866;-4.222;2022-12-07T12:54:05;81.30;;;52.60;;
44428;SDS011;30134;47.866;-4.222;2022-12-07T12:57:51;80.47;;;52.05;;
44428;SDS011;30134;47.866;-4.222;2022-12-07T13:02:22;86.45;;;55.97;;
44428;SDS011;30134;47.866;-4.222;2022-12-07T13:05:21;87.70;;;57.78;;
44428;SDS011;30134;47.866;-4.222;2022-12-07T13:15:44;80.93;;;54.10;;
44428;SDS011;30134;47.866;-4.222;2022-12-07T14:43:00;72.68;;;49.97;;
44428;SDS011;30134;47.866;-4.222;2022-12-07T14:45:40;75.07;;;49.40;;
44428;SDS011;30134;47.866;-4.222;2022-12-07T16:04:16;27.30;;;18.70;;
44428;SDS011;30134;47.866;-4.222;2022-12-07T16:06:42;27.00;;;19.00;;
44428;SDS011;30134;47.866;-4.222;2022-12-07T16:09:08;25.63;;;17.75;;
44428;SDS011;30134;47.866;-4.222;2022-12-07T16:11:34;25.30;;;18.05;;
44428;SDS011;30134;47.866;-4.222;2022-12-07T16:14:00;22.38;;;16.42;;
44428;SDS011;30134;47.866;-4.222;2022-12-07T16:16:26;23.67;;;16.27;;
44428;SDS011;30134;47.866;-4.222;2022-12-07T16:18:53;23.20;;;16.02;;
44428;SDS011;30134;47.866;-4.222;2022-12-07T16:21:22;23.38;;;15.00;;
44428;SDS011;30134;47.866;-4.222;2022-12-07T16:23:48;21.55;;;14.80;;
44428;SDS011;30134;47.866;-4.222;2022-12-07T16:26:16;19.85;;;14.38;;
44428;SDS011;30134;47.866;-4.222;2022-12-07T16:28:48;18.10;;;12.43;;
44428;SDS011;30134;47.866;-4.222;2022-12-07T16:31:20;19.00;;;12.90;;
44428;SDS011;30134;47.866;-4.222;2022-12-07T16:33:54;17.83;;;12.70;;
44428;SDS011;30134;47.866;-4.222;2022-12-07T16:36:21;14.63;;;10.93;;
44428;SDS011;30134;47.866;-4.222;2022-12-07T16:38:49;18.75;;;11.88;;
44428;SDS011;30134;47.866;-4.222;2022-12-07T16:41:16;16.02;;;11.02;;
44428;SDS011;30134;47.866;-4.222;2022-12-07T16:43:43;15.20;;;11.07;;
44428;SDS011;30134;47.866;-4.222;2022-12-07T16:46:09;13.50;;;9.82;;
44428;SDS011;30134;47.866;-4.222;2022-12-07T16:48:38;13.15;;;9.43;;
44428;SDS011;30134;47.866;-4.222;2022-12-07T16:51:06;13.55;;;9.77;;
44428;SDS011;30134;47.866;-4.222;2022-12-07T16:53:35;14.45;;;9.70;;
44428;SDS011;30134;47.866;-4.222;2022-12-07T16:56:03;12.85;;;8.95;;
44428;SDS011;30134;47.866;-4.222;2022-12-07T16:58:34;12.37;;;8.93;;
44428;SDS011;30134;47.866;-4.222;2022-12-07T17:01:08;11.23;;;8.38;;
44428;SDS011;30134;47.866;-4.222;2022-12-07T17:03:36;9.82;;;7.88;;
